Home   Weather   USA   Nacogdoches   Past weeks
Flag for USA

Past Weather in Nacogdoches, Texas, USA — Yesterday and Last 2 Weeks

Currently: 70 °F. Overcast. (Weather station: Nacogdoches Weather Reporting Station, USA). See more current weather

Past Weather in Nacogdoches — Graph

°F

Nacogdoches Temperature Yesterday

Maximum temperature yesterday: 93 °F (at 3:56 pm)
Minimum temperature yesterday: 75 °F (at 10:56 pm)
Average temperature yesterday: 81 °F

High & Low Weather Summary for the Past Weeks

 TemperatureHumidityPressure
High95 °F (Jun 14, 3:56 pm)100% (Jun 8, 3:26 am)30.10 "Hg (Jun 8, 3:26 am)
Low66 °F (Jun 18, 5:56 am)43% (Jun 18, 3:56 pm)29.80 "Hg (Jun 20, 4:56 pm)
Average81 °F80%29.94 "Hg
* Reported Jun 7 6:18 am — Jun 22 6:56 am, Nacogdoches. Weather by CustomWeather, © 2021

Note: Actual official high and low records may vary slightly from our data, if they occured in-between our weather recording intervals... More about our weather records

Nacogdoches Weather History for the Previous 24 Hours

Scroll right to see more
 ConditionsComfort  
Time TempWeatherWind HumidityBarometerVisibility
6:56 am
Tue, Jun 22
71 °FLow clouds.6 mph93%29.98 "Hg10 mi
5:56 am73 °FLow clouds.6 mph94%29.98 "Hg10 mi
5:36 am73 °FLow clouds.5 mph94%29.97 "Hg10 mi
5:12 am73 °FOvercast.3 mph94%29.96 "Hg10 mi
4:56 am73 °FLow clouds.5 mph94%29.96 "Hg10 mi
3:56 am73 °FLow clouds.3 mph97%29.95 "Hg10 mi
2:56 am73 °FMostly cloudy.3 mph94%29.95 "Hg10 mi
1:56 am73 °FMostly cloudy.6 mph94%29.96 "Hg10 mi
12:56 am74 °FMostly cloudy.10 mph97%29.96 "Hg10 mi
12:18 am75 °FMostly cloudy.8 mph94%29.94 "Hg10 mi
12:03 am75 °FThundershowers. Mostly cloudy.9 mph94%29.94 "Hg10 mi
11:18 pm
Mon, Jun 21
75 °FMostly cloudy.8 mph94%29.96 "Hg10 mi
10:56 pm75 °FPassing clouds.No wind96%29.95 "Hg10 mi
10:39 pm75 °FPassing clouds.5 mph94%29.94 "Hg10 mi
10:21 pm75 °FMostly cloudy.3 mph94%29.93 "Hg10 mi
10:00 pm77 °FPassing clouds.6 mph94%29.94 "Hg10 mi
9:32 pm79 °FOvercast.No wind89%29.92 "Hg8 mi
9:22 pm79 °FOvercast.No wind94%29.92 "Hg9 mi
8:56 pm78 °FMostly cloudy.5 mph93%29.89 "Hg10 mi
8:31 pm79 °FThundershowers. Fog.No wind89%29.88 "Hg5 mi
8:24 pm79 °FMostly cloudy.3 mph89%29.89 "Hg10 mi
7:56 pm80 °FThundershowers. Partly sunny.3 mph87%29.89 "Hg10 mi
6:56 pm80 °FSunny.5 mph85%29.85 "Hg10 mi
5:56 pm81 °FScattered clouds.6 mph82%29.81 "Hg10 mi
5:09 pm88 °FThundershowers. Sunny.7 mph70%29.81 "Hg10 mi
4:37 pm90 °FThundershowers. Partly sunny.3 mph63%29.82 "Hg10 mi
3:56 pm93 °FSunny.5 mph56%29.82 "Hg10 mi
2:56 pm90 °FBroken clouds.8 mph66%29.84 "Hg10 mi
1:56 pm90 °FBroken clouds.5 mph63%29.84 "Hg10 mi
12:56 pm89 °FScattered clouds.10 mph68%29.87 "Hg10 mi
11:56 am87 °FScattered clouds.10 mph72%29.89 "Hg10 mi
11:03 am84 °FCloudy.6 mph79%29.90 "Hg10 mi
10:56 am85 °FMostly cloudy.6 mph77%29.90 "Hg10 mi
9:56 am83 °FMostly cloudy.8 mph79%29.90 "Hg10 mi
8:56 am82 °FMostly cloudy.8 mph85%29.90 "Hg10 mi
8:17 am81 °FPartly sunny.8 mph84%29.89 "Hg10 mi
Weather by CustomWeather, © 2021

See weather overview